< < Back
Terminal Aerodrome Forecast


Current Version              Previous Versions:   1  2  3  4  5  6  7  8  9  

Terminal Aerodrome Forecast

592
FTUS42 KTAE 301201 AAA
TAFDHN
TAF AMD
KDHN 301201Z 3012/3112 07003KT 1SM BR BKN002
      TEMPO 3012/3014 1/4SM FG BKN001
     FM301400 09004KT P6SM FEW030
     FM301800 13005KT P6SM FEW040=

Latest METAR

837
SAUS70 KWBC 310600 RRC
MTRDHN
METAR KDHN 310553Z AUTO 00000KT 10SM CLR 22/21 A3006 RMK AO2 SLP174
T02220211 10278 20222 403170194 58002


USA.gov is the U.S. government's official web portal to all federal, state and local government web resources and services.